createdAt,value
2019-05-30T00:01:00.007Z,13.50
2019-05-30T00:03:29.476Z,13.50
2019-05-30T00:05:58.783Z,13.40
2019-05-30T00:08:28.121Z,13.40
2019-05-30T00:10:58.519Z,13.40
2019-05-30T00:13:28.438Z,13.40
2019-05-30T00:15:58.762Z,13.30
2019-05-30T00:18:28.382Z,13.30
2019-05-30T00:20:58.756Z,13.30
2019-05-30T00:23:28.411Z,13.30
2019-05-30T00:25:59.065Z,13.30
2019-05-30T00:28:28.706Z,13.20
2019-05-30T00:30:58.329Z,13.20
2019-05-30T00:33:27.985Z,13.20
2019-05-30T00:35:57.661Z,13.10
2019-05-30T00:38:27.203Z,13.10
2019-05-30T00:40:57.779Z,13.10
2019-05-30T00:43:27.435Z,13.10
2019-05-30T00:45:57.898Z,13.10
2019-05-30T00:48:27.587Z,13.00
2019-05-30T00:50:58.247Z,13.00
2019-05-30T00:53:28.015Z,12.90
2019-05-30T00:55:58.582Z,12.90
2019-05-30T00:58:28.282Z,12.90
2019-05-30T01:00:59.039Z,13.00
2019-05-30T01:03:28.991Z,12.90
2019-05-30T01:05:58.703Z,12.90
2019-05-30T01:08:28.490Z,12.90
2019-05-30T01:10:58.892Z,12.80
2019-05-30T01:13:28.398Z,12.80
2019-05-30T01:15:58.859Z,12.80
2019-05-30T01:18:28.479Z,12.80
2019-05-30T01:20:59.046Z,12.80
2019-05-30T01:23:28.640Z,12.80
2019-05-30T01:25:59.227Z,12.70
2019-05-30T01:28:28.809Z,12.70
2019-05-30T01:31:02.954Z,12.70
2019-05-30T01:33:29.827Z,12.70
2019-05-30T01:35:59.682Z,12.80
2019-05-30T01:38:29.239Z,12.70
2019-05-30T01:40:59.643Z,12.70
2019-05-30T01:43:29.453Z,12.70
2019-05-30T01:46:00.089Z,12.70
2019-05-30T01:48:29.537Z,12.60
2019-05-30T01:51:00.225Z,12.60
2019-05-30T01:53:29.850Z,12.60
2019-05-30T01:56:00.545Z,12.60
2019-05-30T01:58:30.157Z,12.60
2019-05-30T02:01:14.387Z,12.50
2019-05-30T02:03:30.703Z,12.60
2019-05-30T02:06:01.038Z,12.50
2019-05-30T02:08:30.460Z,12.50
2019-05-30T02:11:01.194Z,12.50
2019-05-30T02:13:30.725Z,12.50
2019-05-30T02:16:01.472Z,12.40
2019-05-30T02:18:31.015Z,12.40
2019-05-30T02:21:02.047Z,12.30
2019-05-30T02:23:31.577Z,12.30
2019-05-30T02:26:02.217Z,12.40
2019-05-30T02:28:31.905Z,12.30
2019-05-30T02:31:02.990Z,12.40
2019-05-30T02:33:32.685Z,12.40
2019-05-30T02:36:04.020Z,12.40
2019-05-30T02:38:33.096Z,12.30
2019-05-30T02:41:03.361Z,12.40
2019-05-30T02:43:34.059Z,12.40
2019-05-30T02:46:04.130Z,12.40
2019-05-30T02:48:34.603Z,12.30
2019-05-30T02:51:05.395Z,12.30
2019-05-30T02:53:35.175Z,12.30
2019-05-30T02:56:05.994Z,12.20
2019-05-30T02:58:35.671Z,12.20
2019-05-30T03:01:07.042Z,12.20
2019-05-30T03:03:36.217Z,12.20
2019-05-30T03:06:06.863Z,12.20
2019-05-30T03:08:36.848Z,12.20
2019-05-30T03:11:09.934Z,12.20
2019-05-30T03:13:37.827Z,12.20
2019-05-30T03:16:08.883Z,12.20
2019-05-30T03:18:38.424Z,12.20
2019-05-30T03:21:10.256Z,12.20
2019-05-30T03:23:38.946Z,12.20
2019-05-30T03:26:10.833Z,12.10
2019-05-30T03:28:39.316Z,12.20
2019-05-30T03:31:21.195Z,12.10
2019-05-30T03:33:42.846Z,12.20
2019-05-30T03:36:24.160Z,12.20
2019-05-30T03:38:42.961Z,12.20
2019-05-30T03:41:12.429Z,12.20
2019-05-30T03:43:41.864Z,12.20
2019-05-30T03:46:15.813Z,12.20
2019-05-30T03:48:47.461Z,12.10
2019-05-30T03:51:18.460Z,12.10
2019-05-30T03:53:48.231Z,12.10
2019-05-30T03:56:21.945Z,12.20
2019-05-30T03:59:05.640Z,12.10
2019-05-30T04:01:43.363Z,12.10
2019-05-30T04:04:17.617Z,12.10
2019-05-30T04:06:51.432Z,12.10
2019-05-30T04:09:25.292Z,12.00
2019-05-30T04:12:04.987Z,12.10
2019-05-30T04:14:38.234Z,12.10
2019-05-30T04:17:09.946Z,12.10
2019-05-30T04:19:38.873Z,12.10
2019-05-30T04:22:09.317Z,12.10
2019-05-30T04:24:39.242Z,12.10
2019-05-30T04:27:09.951Z,12.20
2019-05-30T04:29:40.044Z,12.20
2019-05-30T04:32:10.357Z,12.20
2019-05-30T04:34:40.047Z,12.10
2019-05-30T04:37:10.646Z,12.20
2019-05-30T04:39:40.238Z,12.20
2019-05-30T04:42:11.189Z,12.20
2019-05-30T04:44:40.845Z,12.20
2019-05-30T04:47:11.953Z,12.20
2019-05-30T04:49:41.416Z,12.20
2019-05-30T04:52:15.354Z,12.10
2019-05-30T04:54:42.068Z,12.10
2019-05-30T04:57:12.705Z,12.20
2019-05-30T04:59:42.241Z,12.20
2019-05-30T05:02:13.525Z,12.20
2019-05-30T05:04:42.740Z,12.10
2019-05-30T05:07:13.513Z,12.10
2019-05-30T05:09:43.279Z,12.10
2019-05-30T05:12:13.894Z,12.10
2019-05-30T05:14:43.459Z,12.20
2019-05-30T05:17:12.862Z,12.10
2019-05-30T05:19:42.243Z,12.10
2019-05-30T05:22:12.792Z,12.10
2019-05-30T05:24:42.207Z,12.10
2019-05-30T05:27:11.519Z,12.10
2019-05-30T05:29:40.809Z,12.10
2019-05-30T05:32:10.518Z,12.10
2019-05-30T05:34:39.995Z,12.20
2019-05-30T05:37:09.329Z,12.20
2019-05-30T05:39:38.746Z,12.10
2019-05-30T05:42:08.079Z,12.10
2019-05-30T05:44:37.500Z,12.10
2019-05-30T05:47:06.953Z,12.10
2019-05-30T05:49:36.647Z,12.20
2019-05-30T05:52:05.964Z,12.20
2019-05-30T05:54:35.357Z,12.20
2019-05-30T05:57:04.859Z,12.30
2019-05-30T05:59:34.424Z,12.30
2019-05-30T06:02:03.934Z,12.30
2019-05-30T06:04:33.225Z,12.30
2019-05-30T06:07:02.812Z,12.40
2019-05-30T06:09:32.321Z,12.40
2019-05-30T06:12:01.939Z,12.50
2019-05-30T06:14:31.314Z,12.50
2019-05-30T06:17:00.798Z,12.50
2019-05-30T06:19:45.513Z,12.50
2019-05-30T06:22:01.847Z,12.60
2019-05-30T06:24:31.241Z,12.60
2019-05-30T06:27:00.691Z,12.60
2019-05-30T06:29:30.323Z,12.70
2019-05-30T06:31:59.751Z,12.70
2019-05-30T06:34:38.540Z,12.80
2019-05-30T06:37:00.186Z,12.90
2019-05-30T06:39:29.767Z,13.00
2019-05-30T06:41:59.219Z,13.00
2019-05-30T06:44:28.526Z,13.10
2019-05-30T06:46:57.755Z,13.10
2019-05-30T06:53:08.410Z,13.20
2019-05-30T06:55:37.800Z,13.30
2019-05-30T06:58:07.155Z,13.30
2019-05-30T07:00:36.514Z,13.40
2019-05-30T07:03:06.298Z,13.40
2019-05-30T07:05:36.430Z,13.50
2019-05-30T07:08:06.252Z,13.50
2019-05-30T07:10:35.880Z,13.60
2019-05-30T07:13:05.432Z,13.60
2019-05-30T07:15:34.829Z,13.60
2019-05-30T07:18:04.177Z,13.60
2019-05-30T07:20:33.846Z,13.70
2019-05-30T07:23:03.375Z,13.70
2019-05-30T07:25:34.010Z,13.60
2019-05-30T07:28:03.578Z,13.70
2019-05-30T07:30:34.125Z,13.70
2019-05-30T07:33:06.634Z,13.70
2019-05-30T07:35:36.092Z,13.70
2019-05-30T07:38:05.679Z,13.70
2019-05-30T07:40:35.073Z,13.80
2019-05-30T07:43:04.636Z,13.80
2019-05-30T07:45:35.093Z,13.80
2019-05-30T07:48:04.610Z,13.80
2019-05-30T07:50:34.577Z,13.80
2019-05-30T07:53:04.141Z,13.70
2019-05-30T07:55:33.566Z,13.70
2019-05-30T07:58:03.030Z,13.70
2019-05-30T08:00:33.565Z,13.70
2019-05-30T08:03:03.142Z,13.70
2019-05-30T08:05:32.702Z,13.60
2019-05-30T08:08:02.166Z,13.60
2019-05-30T08:10:31.989Z,13.60
2019-05-30T08:13:01.590Z,13.60
2019-05-30T08:15:31.396Z,13.60
2019-05-30T08:18:00.981Z,13.70
2019-05-30T08:20:31.635Z,13.60
2019-05-30T08:23:01.222Z,13.60
2019-05-30T08:25:30.573Z,13.50
2019-05-30T08:28:00.184Z,13.50
2019-05-30T08:30:30.341Z,13.50
2019-05-30T08:32:59.785Z,13.50
2019-05-30T08:35:39.088Z,13.50
2019-05-30T08:38:00.230Z,13.40
2019-05-30T08:40:31.061Z,13.40
2019-05-30T08:43:00.528Z,13.40
2019-05-30T08:45:29.844Z,13.50
2019-05-30T08:47:59.258Z,13.40
2019-05-30T08:50:30.233Z,13.50
2019-05-30T08:52:59.786Z,13.40
2019-05-30T08:55:30.188Z,13.40
2019-05-30T08:57:59.790Z,13.50
2019-05-30T09:00:29.393Z,13.50
2019-05-30T09:02:59.791Z,13.50
2019-05-30T09:05:29.171Z,13.50
2019-05-30T09:07:58.598Z,13.50
2019-05-30T09:10:27.934Z,13.50
2019-05-30T09:12:57.409Z,13.50
2019-05-30T09:15:26.906Z,13.60
2019-05-30T09:17:56.338Z,13.60
2019-05-30T09:20:26.204Z,13.60
2019-05-30T09:22:55.664Z,13.70
2019-05-30T09:25:25.394Z,13.70
2019-05-30T09:27:54.855Z,13.80
2019-05-30T09:30:25.043Z,13.70
2019-05-30T09:32:54.653Z,13.70
2019-05-30T09:35:24.053Z,13.80
2019-05-30T09:37:53.618Z,13.70
2019-05-30T09:40:23.251Z,13.70
2019-05-30T09:42:52.578Z,13.80
2019-05-30T09:45:23.922Z,13.80
2019-05-30T09:47:53.351Z,13.80
2019-05-30T09:50:22.657Z,13.90
2019-05-30T09:52:52.040Z,14.00
2019-05-30T09:55:21.970Z,14.00
2019-05-30T09:57:51.684Z,14.10
2019-05-30T10:00:23.435Z,14.10
2019-05-30T10:02:52.835Z,14.20
2019-05-30T10:05:24.867Z,14.20
2019-05-30T10:07:54.712Z,14.30
2019-05-30T10:10:24.236Z,14.40
2019-05-30T10:12:53.630Z,14.40
2019-05-30T10:15:23.462Z,14.50
2019-05-30T10:17:54.345Z,14.40
2019-05-30T10:20:24.450Z,14.50
2019-05-30T10:22:54.075Z,14.50
2019-05-30T10:25:23.841Z,14.50
2019-05-30T10:27:54.800Z,14.60
2019-05-30T10:30:25.015Z,14.70
2019-05-30T10:32:55.833Z,14.70
2019-05-30T10:35:25.470Z,14.70
2019-05-30T10:37:54.927Z,14.70
2019-05-30T10:40:24.431Z,14.70
2019-05-30T10:42:55.115Z,14.70
2019-05-30T10:45:25.334Z,14.70
2019-05-30T10:47:54.710Z,14.70
2019-05-30T10:50:25.137Z,14.80
2019-05-30T10:52:55.636Z,14.80
2019-05-30T10:55:25.717Z,14.90
2019-05-30T10:57:58.065Z,14.90
2019-05-30T11:00:45.754Z,14.90
2019-05-30T11:03:16.038Z,15.00
2019-05-30T11:05:49.182Z,15.00
2019-05-30T11:08:21.661Z,14.90
2019-05-30T11:10:51.091Z,15.00
2019-05-30T11:13:20.548Z,14.90
2019-05-30T11:15:51.493Z,14.90
2019-05-30T11:18:21.269Z,14.90
2019-05-30T11:20:52.262Z,14.90
2019-05-30T11:23:21.812Z,14.90
2019-05-30T11:25:51.091Z,15.00
2019-05-30T11:28:20.365Z,15.00
2019-05-30T11:30:50.598Z,15.00
2019-05-30T11:33:20.048Z,15.00
2019-05-30T11:35:49.432Z,14.90
2019-05-30T11:38:20.707Z,14.90
2019-05-30T11:40:51.243Z,14.90
2019-05-30T11:43:20.725Z,14.90
2019-05-30T11:45:51.568Z,15.00
2019-05-30T11:48:21.181Z,15.00
2019-05-30T11:50:51.958Z,14.90
2019-05-30T11:53:21.426Z,14.90
2019-05-30T11:55:52.170Z,14.90
2019-05-30T11:58:21.720Z,14.90
2019-05-30T12:00:52.952Z,14.90
2019-05-30T12:03:22.317Z,14.90
2019-05-30T12:05:52.524Z,15.00
2019-05-30T12:08:21.978Z,15.00
2019-05-30T12:10:51.290Z,14.90
2019-05-30T12:13:20.631Z,15.00
2019-05-30T12:15:51.258Z,15.00
2019-05-30T12:18:20.865Z,15.00
2019-05-30T12:20:51.600Z,15.00
2019-05-30T12:23:21.242Z,15.00
2019-05-30T12:25:51.869Z,15.00
2019-05-30T12:28:21.405Z,14.90
2019-05-30T12:30:56.723Z,14.80
2019-05-30T12:33:21.870Z,14.80
2019-05-30T12:35:52.393Z,14.80
2019-05-30T12:38:21.810Z,14.70
2019-05-30T12:40:51.048Z,14.80
2019-05-30T12:43:20.501Z,14.70
2019-05-30T12:45:49.913Z,14.70
2019-05-30T12:48:19.306Z,14.70
2019-05-30T12:50:48.729Z,14.70
2019-05-30T12:53:20.244Z,14.70
2019-05-30T12:55:49.567Z,14.70
2019-05-30T12:58:19.285Z,14.60
2019-05-30T13:00:49.054Z,14.60
2019-05-30T13:03:18.314Z,14.60
2019-05-30T13:05:47.653Z,14.70
2019-05-30T13:08:21.646Z,14.70
2019-05-30T13:10:48.250Z,14.70
2019-05-30T13:13:17.794Z,14.70
2019-05-30T13:15:47.097Z,14.70
2019-05-30T13:18:16.938Z,14.60
2019-05-30T13:20:46.278Z,14.70
2019-05-30T13:23:15.660Z,14.60
2019-05-30T13:25:45.066Z,14.60
2019-05-30T13:28:14.399Z,14.60
2019-05-30T13:30:43.831Z,14.60
2019-05-30T13:33:13.185Z,14.60
2019-05-30T13:35:42.629Z,14.60
2019-05-30T13:38:25.713Z,14.60
2019-05-30T13:40:42.980Z,14.60
2019-05-30T13:43:12.421Z,14.60
2019-05-30T13:45:41.929Z,14.60
2019-05-30T13:48:13.026Z,14.60
2019-05-30T13:50:42.446Z,14.60
2019-05-30T13:53:11.898Z,14.50
2019-05-30T13:55:41.295Z,14.50
2019-05-30T13:58:10.703Z,14.40
2019-05-30T14:00:40.109Z,14.40
2019-05-30T14:03:10.315Z,14.40
2019-05-30T14:05:40.042Z,14.40
2019-05-30T14:08:16.465Z,14.40
2019-05-30T14:10:42.643Z,14.50
2019-05-30T14:13:12.186Z,14.50
2019-05-30T14:15:41.713Z,14.50
2019-05-30T14:18:11.303Z,14.40
2019-05-30T14:20:40.591Z,14.40
2019-05-30T14:23:09.947Z,14.30
2019-05-30T14:25:39.384Z,14.30
2019-05-30T14:28:09.858Z,14.30
2019-05-30T14:30:39.371Z,14.20
2019-05-30T14:33:10.070Z,14.20
2019-05-30T14:35:41.511Z,14.20
2019-05-30T14:38:11.032Z,14.20
2019-05-30T14:40:40.493Z,14.10
2019-05-30T14:43:09.838Z,14.10
2019-05-30T14:45:39.251Z,14.10
2019-05-30T14:48:08.720Z,14.10
2019-05-30T14:50:39.866Z,14.10
2019-05-30T14:53:09.196Z,14.20
2019-05-30T14:55:38.602Z,14.20
2019-05-30T14:58:09.122Z,14.20
2019-05-30T15:00:38.654Z,14.20
2019-05-30T15:03:12.426Z,14.20
2019-05-30T15:05:39.209Z,14.10
2019-05-30T15:08:08.665Z,14.10
2019-05-30T15:10:38.383Z,14.00
2019-05-30T15:13:07.744Z,14.10
2019-05-30T15:15:37.339Z,14.10
2019-05-30T15:18:07.110Z,14.10
2019-05-30T15:20:36.582Z,14.00
2019-05-30T15:23:06.018Z,14.00
2019-05-30T15:25:35.601Z,14.10
2019-05-30T15:28:06.019Z,14.10
2019-05-30T15:30:35.416Z,14.10
2019-05-30T15:33:06.223Z,14.00
2019-05-30T15:35:35.738Z,13.90
2019-05-30T15:38:05.135Z,13.90
2019-05-30T15:40:34.471Z,13.90
2019-05-30T15:43:03.906Z,13.90
2019-05-30T15:45:33.303Z,13.80
2019-05-30T15:48:02.832Z,13.90
2019-05-30T15:50:33.573Z,13.90
2019-05-30T15:53:02.915Z,13.90
2019-05-30T15:55:32.453Z,13.90
2019-05-30T15:58:01.802Z,13.90
2019-05-30T16:00:31.420Z,13.90
2019-05-30T16:03:00.807Z,13.90
2019-05-30T16:05:30.355Z,13.90
2019-05-30T16:07:59.866Z,13.90
2019-05-30T16:10:29.451Z,13.90
2019-05-30T16:12:58.748Z,13.90
2019-05-30T16:15:28.226Z,13.90
2019-05-30T16:17:57.721Z,13.90
2019-05-30T16:20:27.131Z,13.90
2019-05-30T16:22:56.775Z,13.90
2019-05-30T16:25:26.131Z,13.90
2019-05-30T16:27:56.341Z,13.90
2019-05-30T16:30:27.141Z,13.90
2019-05-30T16:32:56.769Z,13.80
2019-05-30T16:35:26.479Z,13.80
2019-05-30T16:37:55.862Z,13.70
2019-05-30T16:40:26.597Z,13.70
2019-05-30T16:42:56.269Z,13.70
2019-05-30T16:45:26.752Z,13.70
2019-05-30T16:47:56.437Z,13.70
2019-05-30T16:50:27.033Z,13.70
2019-05-30T16:52:56.773Z,13.60
2019-05-30T16:55:26.165Z,13.60
2019-05-30T16:57:56.836Z,13.50
2019-05-30T17:00:26.793Z,13.50
2019-05-30T17:02:56.366Z,13.50
2019-05-30T17:05:28.619Z,13.40
2019-05-30T17:08:00.017Z,13.50
2019-05-30T17:10:32.848Z,13.40
2019-05-30T17:13:00.450Z,13.30
2019-05-30T17:15:29.795Z,13.30
2019-05-30T17:17:59.052Z,13.30
2019-05-30T17:20:28.685Z,13.20
2019-05-30T17:22:58.396Z,13.20
2019-05-30T17:25:28.069Z,13.20
2019-05-30T17:27:59.302Z,13.10
2019-05-30T17:30:28.730Z,13.10
2019-05-30T17:32:58.160Z,13.10
2019-05-30T17:35:28.531Z,13.00
2019-05-30T17:37:57.949Z,13.00
2019-05-30T17:40:41.092Z,12.90
2019-05-30T17:42:59.487Z,12.90
2019-05-30T17:45:29.483Z,12.90
2019-05-30T17:48:15.283Z,12.90
2019-05-30T17:50:30.260Z,12.80
2019-05-30T17:52:59.741Z,12.90
2019-05-30T17:55:30.127Z,12.90
2019-05-30T17:58:01.482Z,12.90
2019-05-30T18:00:31.022Z,12.90
2019-05-30T18:03:00.627Z,12.90
2019-05-30T18:05:30.958Z,12.90
2019-05-30T18:08:00.381Z,12.90
2019-05-30T18:10:31.081Z,12.80
2019-05-30T18:13:00.801Z,12.90
2019-05-30T18:15:31.981Z,12.80
2019-05-30T18:18:01.350Z,12.80
2019-05-30T18:20:31.639Z,12.80
2019-05-30T18:23:01.225Z,12.70
2019-05-30T18:25:31.738Z,12.70
2019-05-30T18:28:01.311Z,12.80
2019-05-30T18:30:42.541Z,12.80
2019-05-30T18:33:12.242Z,12.70
2019-05-30T18:35:41.855Z,12.70
2019-05-30T18:38:11.522Z,12.70
2019-05-30T18:40:41.056Z,12.70
2019-05-30T18:43:10.711Z,12.70
2019-05-30T18:45:42.847Z,12.70
2019-05-30T18:48:12.646Z,12.60
2019-05-30T18:50:42.247Z,12.60
2019-05-30T18:53:11.787Z,12.60
2019-05-30T18:55:41.238Z,12.50
2019-05-30T18:58:10.839Z,12.50
2019-05-30T19:00:40.155Z,12.40
2019-05-30T19:03:09.733Z,12.30
2019-05-30T19:05:41.961Z,12.40
2019-05-30T19:08:11.296Z,12.30
2019-05-30T19:10:41.258Z,12.30
2019-05-30T19:13:10.824Z,12.30
2019-05-30T19:15:40.242Z,12.30
2019-05-30T19:18:09.775Z,12.20
2019-05-30T19:20:39.468Z,12.20
2019-05-30T19:23:08.925Z,12.20
2019-05-30T19:25:38.627Z,12.10
2019-05-30T19:28:08.007Z,12.10
2019-05-30T19:30:41.018Z,12.10
2019-05-30T19:33:08.619Z,12.10
2019-05-30T19:35:39.925Z,12.10
2019-05-30T19:38:09.353Z,12.10
2019-05-30T19:40:38.925Z,12.10
2019-05-30T19:43:08.250Z,12.10
2019-05-30T19:45:38.302Z,12.10
2019-05-30T19:48:07.811Z,12.10
2019-05-30T19:50:37.407Z,12.10
2019-05-30T19:53:06.934Z,12.10
2019-05-30T19:55:37.397Z,12.10
2019-05-30T19:58:07.411Z,12.10
2019-05-30T20:00:56.771Z,12.10
2019-05-30T20:03:08.051Z,12.10
2019-05-30T20:05:38.774Z,12.00
2019-05-30T20:08:08.429Z,12.00
2019-05-30T20:10:39.110Z,11.90
2019-05-30T20:13:08.684Z,11.90
2019-05-30T20:15:39.439Z,12.00
2019-05-30T20:18:09.050Z,11.90
2019-05-30T20:20:54.028Z,11.90
2019-05-30T20:23:09.796Z,11.80
2019-05-30T20:25:42.451Z,11.80
2019-05-30T20:28:10.301Z,11.80
2019-05-30T20:30:39.698Z,11.80
2019-05-30T20:33:09.447Z,11.80
2019-05-30T20:35:40.049Z,11.80
2019-05-30T20:38:10.384Z,11.80
2019-05-30T20:40:40.835Z,11.80
2019-05-30T20:43:10.328Z,11.80
2019-05-30T20:45:45.607Z,11.80
2019-05-30T20:48:11.104Z,11.80
2019-05-30T20:50:41.166Z,11.80
2019-05-30T20:53:10.689Z,11.70
2019-05-30T20:55:40.488Z,11.70
2019-05-30T20:58:09.989Z,11.70
2019-05-30T21:00:43.827Z,11.70
2019-05-30T21:03:13.528Z,11.60
2019-05-30T21:05:44.437Z,11.60
2019-05-30T21:08:15.814Z,11.60
2019-05-30T21:10:47.435Z,11.60
2019-05-30T21:13:18.354Z,11.60
2019-05-30T21:15:48.531Z,11.60
2019-05-30T21:18:19.453Z,11.60
2019-05-30T21:20:49.082Z,11.50
2019-05-30T21:23:18.582Z,11.50
2019-05-30T21:25:48.104Z,11.50
2019-05-30T21:28:17.690Z,11.50
2019-05-30T21:30:47.506Z,11.50
2019-05-30T21:33:17.494Z,11.50
2019-05-30T21:35:48.048Z,11.40
2019-05-30T21:38:17.608Z,11.40
2019-05-30T21:40:48.374Z,11.40
2019-05-30T21:43:18.184Z,11.40
2019-05-30T21:45:48.709Z,11.40
2019-05-30T21:48:18.474Z,11.30
2019-05-30T21:50:49.116Z,11.30
2019-05-30T21:53:21.340Z,11.30
2019-05-30T21:55:50.764Z,11.30
2019-05-30T21:58:20.120Z,11.30
2019-05-30T22:01:32.765Z,11.30
2019-05-30T22:04:02.677Z,11.30
2019-05-30T22:06:32.057Z,11.20
2019-05-30T22:09:03.503Z,11.30
2019-05-30T22:11:32.589Z,11.30
2019-05-30T22:14:02.066Z,11.30
2019-05-30T22:16:31.303Z,11.20
2019-05-30T22:19:00.825Z,11.20
2019-05-30T22:21:30.386Z,11.20
2019-05-30T22:23:59.803Z,11.20
2019-05-30T22:26:29.214Z,11.20
2019-05-30T22:29:00.732Z,11.20
2019-05-30T22:31:30.151Z,11.20
2019-05-30T22:33:59.662Z,11.20
2019-05-30T22:36:29.122Z,11.20
2019-05-30T22:38:58.438Z,11.20
2019-05-30T22:41:28.008Z,11.10
2019-05-30T22:43:57.417Z,11.20
2019-05-30T22:46:26.778Z,11.20
2019-05-30T22:48:56.912Z,11.20
2019-05-30T22:51:27.598Z,11.20
2019-05-30T22:53:57.365Z,11.20
2019-05-30T22:56:27.195Z,11.20
2019-05-30T22:58:56.612Z,11.20
2019-05-30T23:01:26.030Z,11.20
2019-05-30T23:03:55.477Z,11.20
2019-05-30T23:06:24.900Z,11.20
2019-05-30T23:08:54.846Z,11.20
2019-05-30T23:11:24.615Z,11.20
2019-05-30T23:13:54.051Z,11.30
2019-05-30T23:16:23.646Z,11.20
2019-05-30T23:18:52.985Z,11.20
2019-05-30T23:21:22.330Z,11.20
2019-05-30T23:23:51.926Z,11.20
2019-05-30T23:26:22.311Z,11.20
2019-05-30T23:28:51.865Z,11.10
2019-05-30T23:31:21.420Z,11.10
2019-05-30T23:33:52.278Z,11.20
2019-05-30T23:36:22.196Z,11.20
2019-05-30T23:38:52.514Z,11.10
2019-05-30T23:41:22.131Z,11.20
2019-05-30T23:44:03.187Z,11.20
2019-05-30T23:46:22.824Z,11.10
2019-05-30T23:51:20.769Z,11.10
2019-05-30T23:53:50.214Z,11.20
2019-05-30T23:56:19.646Z,11.20
2019-05-30T23:58:50.422Z,11.10
